sensor_id;sensor_type;location;lat;lon;timestamp;pressure;altitude;pressure_sealevel;temperature;humidity
63694;BME280;49839;51.798;10.954;2023-08-12T07:02:51;99133.88;;;20.88;nan
63694;BME280;49839;51.798;10.954;2023-08-12T07:05:19;99132.81;;;20.98;nan
63694;BME280;49839;51.798;10.954;2023-08-12T07:07:47;99153.81;;;21.03;nan
63694;BME280;49839;51.798;10.954;2023-08-12T07:10:15;99161.44;;;20.98;nan
63694;BME280;49839;51.798;10.954;2023-08-12T07:12:42;99182.03;;;20.97;nan
63694;BME280;49839;51.798;10.954;2023-08-12T07:15:10;99178.50;;;20.97;nan
63694;BME280;49839;51.798;10.954;2023-08-12T07:17:38;99172.47;;;20.95;nan
63694;BME280;49839;51.798;10.954;2023-08-12T07:20:08;99178.22;;;21.00;nan
63694;BME280;49839;51.798;10.954;2023-08-12T07:22:36;99169.03;;;21.02;nan
63694;BME280;49839;51.798;10.954;2023-08-12T07:25:05;99166.91;;;21.06;nan
63694;BME280;49839;51.798;10.954;2023-08-12T07:27:33;99167.75;;;21.06;nan
63694;BME280;49839;51.798;10.954;2023-08-12T07:30:01;99158.72;;;21.07;nan
63694;BME280;49839;51.798;10.954;2023-08-12T07:32:29;99163.53;;;21.04;nan
63694;BME280;49839;51.798;10.954;2023-08-12T07:34:57;99162.53;;;21.05;nan
63694;BME280;49839;51.798;10.954;2023-08-12T07:37:26;99157.31;;;21.03;nan
63694;BME280;49839;51.798;10.954;2023-08-12T07:39:54;99152.66;;;21.05;nan
63694;BME280;49839;51.798;10.954;2023-08-12T07:42:21;99163.25;;;21.07;nan
63694;BME280;49839;51.798;10.954;2023-08-12T07:44:49;99168.69;;;21.15;nan
63694;BME280;49839;51.798;10.954;2023-08-12T07:47:17;99167.41;;;21.19;nan
63694;BME280;49839;51.798;10.954;2023-08-12T07:49:44;99172.28;;;21.24;nan
63694;BME280;49839;51.798;10.954;2023-08-12T07:52:12;99175.28;;;21.21;nan
63694;BME280;49839;51.798;10.954;2023-08-12T07:54:41;99181.50;;;21.21;nan
63694;BME280;49839;51.798;10.954;2023-08-12T07:57:09;99174.13;;;21.23;nan
63694;BME280;49839;51.798;10.954;2023-08-12T07:59:37;99178.22;;;21.27;nan
63694;BME280;49839;51.798;10.954;2023-08-12T08:02:04;99175.81;;;21.24;nan
63694;BME280;49839;51.798;10.954;2023-08-12T08:04:33;99164.41;;;21.22;nan
63694;BME280;49839;51.798;10.954;2023-08-12T08:07:00;99160.91;;;21.22;nan
63694;BME280;49839;51.798;10.954;2023-08-12T08:09:28;99166.94;;;21.24;nan
63694;BME280;49839;51.798;10.954;2023-08-12T08:11:57;99158.91;;;21.24;nan
63694;BME280;49839;51.798;10.954;2023-08-12T08:14:25;99162.00;;;21.29;nan
63694;BME280;49839;51.798;10.954;2023-08-12T08:16:53;99149.28;;;21.31;nan
63694;BME280;49839;51.798;10.954;2023-08-12T08:19:21;99162.13;;;21.27;nan
63694;BME280;49839;51.798;10.954;2023-08-12T08:21:54;99165.53;;;21.29;nan
63694;BME280;49839;51.798;10.954;2023-08-12T08:24:22;99162.69;;;21.31;nan
63694;BME280;49839;51.798;10.954;2023-08-12T08:26:50;99159.88;;;21.32;nan
63694;BME280;49839;51.798;10.954;2023-08-12T08:29:19;99143.63;;;21.34;nan
63694;BME280;49839;51.798;10.954;2023-08-12T08:31:47;99145.72;;;21.40;nan
63694;BME280;49839;51.798;10.954;2023-08-12T08:34:15;99140.34;;;21.40;nan
63694;BME280;49839;51.798;10.954;2023-08-12T08:36:42;99127.69;;;21.50;nan
63694;BME280;49839;51.798;10.954;2023-08-12T08:39:10;99122.13;;;21.61;nan
63694;BME280;49839;51.798;10.954;2023-08-12T08:41:38;99118.66;;;21.69;nan
63694;BME280;49839;51.798;10.954;2023-08-12T08:44:08;99122.41;;;21.76;nan
63694;BME280;49839;51.798;10.954;2023-08-12T08:46:37;99127.31;;;21.81;nan
63694;BME280;49839;51.798;10.954;2023-08-12T08:49:05;99131.88;;;21.88;nan
63694;BME280;49839;51.798;10.954;2023-08-12T08:51:34;99135.63;;;21.96;nan
63694;BME280;49839;51.798;10.954;2023-08-12T08:54:02;99139.06;;;22.06;nan
63694;BME280;49839;51.798;10.954;2023-08-12T08:56:31;99144.53;;;22.14;nan
63694;BME280;49839;51.798;10.954;2023-08-12T08:58:59;99142.34;;;22.09;nan
63694;BME280;49839;51.798;10.954;2023-08-12T09:01:28;99142.59;;;22.06;nan
63694;BME280;49839;51.798;10.954;2023-08-12T09:03:58;99138.66;;;22.10;nan
63694;BME280;49839;51.798;10.954;2023-08-12T09:06:28;99137.00;;;22.17;nan
63694;BME280;49839;51.798;10.954;2023-08-12T09:08:57;99145.75;;;22.20;nan
63694;BME280;49839;51.798;10.954;2023-08-12T09:11:25;99146.56;;;22.20;nan
63694;BME280;49839;51.798;10.954;2023-08-12T09:13:53;99142.22;;;22.19;nan
63694;BME280;49839;51.798;10.954;2023-08-12T09:16:21;99143.22;;;22.18;nan
63694;BME280;49839;51.798;10.954;2023-08-12T09:18:54;99146.41;;;22.22;nan
63694;BME280;49839;51.798;10.954;2023-08-12T09:21:24;99146.13;;;22.25;nan
63694;BME280;49839;51.798;10.954;2023-08-12T09:23:52;99145.78;;;22.28;nan
63694;BME280;49839;51.798;10.954;2023-08-12T09:26:20;99135.59;;;22.31;nan
63694;BME280;49839;51.798;10.954;2023-08-12T09:28:49;99135.97;;;22.36;nan
63694;BME280;49839;51.798;10.954;2023-08-12T09:31:27;99131.94;;;22.40;nan
63694;BME280;49839;51.798;10.954;2023-08-12T09:33:58;99128.41;;;22.40;nan
63694;BME280;49839;51.798;10.954;2023-08-12T09:47:43;99115.56;;;23.52;nan
63694;BME280;49839;51.798;10.954;2023-08-12T09:50:11;99104.03;;;23.76;nan
63694;BME280;49839;51.798;10.954;2023-08-12T09:52:40;99103.69;;;23.96;nan
63694;BME280;49839;51.798;10.954;2023-08-12T09:55:10;99097.44;;;24.03;nan
63694;BME280;49839;51.798;10.954;2023-08-12T09:57:41;99096.91;;;24.16;nan
63694;BME280;49839;51.798;10.954;2023-08-12T10:00:11;99085.75;;;24.27;nan
63694;BME280;49839;51.798;10.954;2023-08-12T10:02:45;99081.56;;;24.25;nan
63694;BME280;49839;51.798;10.954;2023-08-12T10:05:16;99081.53;;;24.33;nan
63694;BME280;49839;51.798;10.954;2023-08-12T10:07:47;99076.47;;;24.46;nan
63694;BME280;49839;51.798;10.954;2023-08-12T10:10:15;99072.06;;;24.62;nan
63694;BME280;49839;51.798;10.954;2023-08-12T10:12:43;99072.66;;;24.80;nan
63694;BME280;49839;51.798;10.954;2023-08-12T10:15:12;99070.34;;;25.08;nan
63694;BME280;49839;51.798;10.954;2023-08-12T10:17:40;99067.63;;;25.31;nan
63694;BME280;49839;51.798;10.954;2023-08-12T10:20:13;99065.91;;;25.61;nan
63694;BME280;49839;51.798;10.954;2023-08-12T10:22:42;99063.31;;;25.67;nan
63694;BME280;49839;51.798;10.954;2023-08-12T10:25:13;99055.53;;;25.73;nan
63694;BME280;49839;51.798;10.954;2023-08-12T10:27:41;99050.56;;;25.84;nan
63694;BME280;49839;51.798;10.954;2023-08-12T10:30:10;99047.13;;;26.05;nan
63694;BME280;49839;51.798;10.954;2023-08-12T10:32:40;99046.97;;;26.22;nan
63694;BME280;49839;51.798;10.954;2023-08-12T10:35:09;99046.06;;;26.44;nan
63694;BME280;49839;51.798;10.954;2023-08-12T10:37:39;99044.53;;;26.71;nan
63694;BME280;49839;51.798;10.954;2023-08-12T10:40:20;99040.69;;;27.16;nan
63694;BME280;49839;51.798;10.954;2023-08-12T10:42:49;99043.59;;;27.36;nan
63694;BME280;49839;51.798;10.954;2023-08-12T10:45:17;99048.75;;;27.95;nan
63694;BME280;49839;51.798;10.954;2023-08-12T10:50:36;99045.59;;;29.16;nan
63694;BME280;49839;51.798;10.954;2023-08-12T10:56:11;59032.25;;;-144.36;100.00
63694;BME280;49839;51.798;10.954;2023-08-12T10:58:45;59032.25;;;-144.36;100.00
63694;BME280;49839;51.798;10.954;2023-08-12T11:01:16;59032.25;;;-144.36;100.00
63694;BME280;49839;51.798;10.954;2023-08-12T11:03:45;59032.25;;;-144.36;100.00
63694;BME280;49839;51.798;10.954;2023-08-12T11:06:13;59032.25;;;-144.36;100.00
63694;BME280;49839;51.798;10.954;2023-08-12T11:08:46;59032.25;;;-144.36;100.00
63694;BME280;49839;51.798;10.954;2023-08-12T11:11:21;59032.25;;;-144.36;100.00
63694;BME280;49839;51.798;10.954;2023-08-12T11:13:53;59032.25;;;-144.36;100.00
63694;BME280;49839;51.798;10.954;2023-08-12T11:16:31;99036.06;;;27.53;nan
63694;BME280;49839;51.798;10.954;2023-08-12T11:19:05;99045.09;;;27.39;nan
63694;BME280;49839;51.798;10.954;2023-08-12T11:21:36;99033.41;;;27.17;nan
63694;BME280;49839;51.798;10.954;2023-08-12T11:24:04;99025.06;;;26.97;nan
63694;BME280;49839;51.798;10.954;2023-08-12T11:26:33;99024.22;;;26.96;nan
63694;BME280;49839;51.798;10.954;2023-08-12T11:29:01;99017.56;;;26.92;nan
63694;BME280;49839;51.798;10.954;2023-08-12T11:31:35;99024.91;;;26.84;nan
63694;BME280;49839;51.798;10.954;2023-08-12T11:34:04;99021.78;;;27.02;nan
63694;BME280;49839;51.798;10.954;2023-08-12T11:36:32;99022.50;;;27.25;nan
63694;BME280;49839;51.798;10.954;2023-08-12T11:39:00;99025.28;;;27.81;nan
63694;BME280;49839;51.798;10.954;2023-08-12T11:41:28;99017.38;;;28.14;nan
63694;BME280;49839;51.798;10.954;2023-08-12T11:43:57;99012.13;;;28.06;nan
63694;BME280;49839;51.798;10.954;2023-08-12T11:46:25;99012.91;;;28.00;nan
63694;BME280;49839;51.798;10.954;2023-08-12T11:48:53;99005.00;;;27.98;nan
63694;BME280;49839;51.798;10.954;2023-08-12T11:51:20;99007.94;;;28.03;nan
63694;BME280;49839;51.798;10.954;2023-08-12T11:53:48;99014.94;;;28.26;nan
63694;BME280;49839;51.798;10.954;2023-08-12T11:56:16;99007.38;;;28.43;nan
63694;BME280;49839;51.798;10.954;2023-08-12T11:58:48;99016.66;;;28.75;nan
63694;BME280;49839;51.798;10.954;2023-08-12T12:01:21;99008.34;;;28.83;nan
63694;BME280;49839;51.798;10.954;2023-08-12T12:03:50;99002.09;;;28.82;nan
63694;BME280;49839;51.798;10.954;2023-08-12T12:06:29;99005.19;;;28.73;nan
63694;BME280;49839;51.798;10.954;2023-08-12T12:09:00;98992.31;;;28.40;nan
63694;BME280;49839;51.798;10.954;2023-08-12T12:11:29;99004.06;;;28.19;nan
63694;BME280;49839;51.798;10.954;2023-08-12T12:14:01;99001.78;;;28.16;nan
63694;BME280;49839;51.798;10.954;2023-08-12T12:16:38;99003.00;;;28.14;nan
63694;BME280;49839;51.798;10.954;2023-08-12T12:19:14;98994.31;;;28.25;nan
63694;BME280;49839;51.798;10.954;2023-08-12T12:21:45;98996.28;;;28.38;nan
63694;BME280;49839;51.798;10.954;2023-08-12T12:24:13;98991.06;;;28.36;nan
63694;BME280;49839;51.798;10.954;2023-08-12T12:26:41;98990.50;;;28.47;nan
63694;BME280;49839;51.798;10.954;2023-08-12T12:29:09;98992.97;;;28.42;nan
63694;BME280;49839;51.798;10.954;2023-08-12T12:31:40;98985.97;;;28.61;nan
63694;BME280;49839;51.798;10.954;2023-08-12T12:34:08;98991.78;;;28.58;nan
63694;BME280;49839;51.798;10.954;2023-08-12T12:36:37;98985.78;;;28.69;nan
63694;BME280;49839;51.798;10.954;2023-08-12T12:39:05;98971.94;;;28.51;nan
63694;BME280;49839;51.798;10.954;2023-08-12T12:41:34;98977.66;;;28.28;nan
63694;BME280;49839;51.798;10.954;2023-08-12T12:54:51;98968.06;;;28.73;nan
63694;BME280;49839;51.798;10.954;2023-08-12T12:57:18;98969.81;;;28.94;nan
63694;BME280;49839;51.798;10.954;2023-08-12T12:59:46;98968.56;;;29.10;nan
63694;BME280;49839;51.798;10.954;2023-08-12T13:02:14;98962.97;;;29.18;nan
63694;BME280;49839;51.798;10.954;2023-08-12T13:04:42;98959.22;;;29.26;nan
63694;BME280;49839;51.798;10.954;2023-08-12T13:07:11;98957.94;;;29.41;nan
63694;BME280;49839;51.798;10.954;2023-08-12T13:09:39;98946.47;;;29.26;nan
63694;BME280;49839;51.798;10.954;2023-08-12T13:12:10;98957.94;;;29.35;nan
63694;BME280;49839;51.798;10.954;2023-08-12T13:14:38;98960.03;;;29.46;nan
63694;BME280;49839;51.798;10.954;2023-08-12T13:17:05;98968.44;;;29.58;nan
63694;BME280;49839;51.798;10.954;2023-08-12T13:19:34;98963.16;;;29.30;nan
63694;BME280;49839;51.798;10.954;2023-08-12T13:22:04;98955.66;;;29.19;nan
63694;BME280;49839;51.798;10.954;2023-08-12T13:24:33;98963.16;;;29.23;nan
63694;BME280;49839;51.798;10.954;2023-08-12T13:27:01;98961.94;;;29.32;nan
63694;BME280;49839;51.798;10.954;2023-08-12T13:29:33;98958.78;;;29.42;nan
63694;BME280;49839;51.798;10.954;2023-08-12T13:32:01;98970.09;;;29.52;nan
63694;BME280;49839;51.798;10.954;2023-08-12T13:34:28;98955.91;;;29.63;nan
63694;BME280;49839;51.798;10.954;2023-08-12T13:36:56;98961.31;;;29.50;nan
63694;BME280;49839;51.798;10.954;2023-08-12T13:39:27;98958.41;;;29.52;nan
63694;BME280;49839;51.798;10.954;2023-08-12T13:41:54;98964.44;;;29.27;nan
63694;BME280;49839;51.798;10.954;2023-08-12T13:44:23;98960.84;;;29.00;nan
63694;BME280;49839;51.798;10.954;2023-08-12T13:46:52;98973.25;;;28.62;nan
63694;BME280;49839;51.798;10.954;2023-08-12T13:49:19;98973.78;;;28.44;nan
63694;BME280;49839;51.798;10.954;2023-08-12T13:51:47;98977.56;;;28.43;nan
63694;BME280;49839;51.798;10.954;2023-08-12T13:56:58;98972.72;;;28.38;nan
63694;BME280;49839;51.798;10.954;2023-08-12T13:59:28;98977.22;;;28.24;nan
63694;BME280;49839;51.798;10.954;2023-08-12T14:01:57;98990.09;;;28.16;nan
63694;BME280;49839;51.798;10.954;2023-08-12T14:04:28;98987.31;;;28.02;nan
63694;BME280;49839;51.798;10.954;2023-08-12T14:07:34;98983.00;;;27.80;nan
63694;BME280;49839;51.798;10.954;2023-08-12T14:12:50;98985.28;;;27.55;nan
63694;BME280;49839;51.798;10.954;2023-08-12T14:15:20;98979.56;;;27.43;nan
63694;BME280;49839;51.798;10.954;2023-08-12T14:17:51;98982.22;;;27.37;nan
63694;BME280;49839;51.798;10.954;2023-08-12T14:29:14;98974.38;;;27.20;nan
63694;BME280;49839;51.798;10.954;2023-08-12T14:31:58;98968.91;;;27.14;nan
63694;BME280;49839;51.798;10.954;2023-08-12T14:34:55;98955.59;;;27.12;nan
63694;BME280;49839;51.798;10.954;2023-08-12T14:37:23;98961.28;;;27.03;nan
63694;BME280;49839;51.798;10.954;2023-08-12T14:39:51;98951.59;;;27.08;nan
63694;BME280;49839;51.798;10.954;2023-08-12T14:42:21;98937.03;;;27.09;nan
63694;BME280;49839;51.798;10.954;2023-08-12T14:44:49;98931.63;;;27.09;nan
63694;BME280;49839;51.798;10.954;2023-08-12T14:47:19;98936.72;;;27.04;nan
63694;BME280;49839;51.798;10.954;2023-08-12T14:49:46;98947.75;;;27.03;nan
63694;BME280;49839;51.798;10.954;2023-08-12T14:54:48;98946.16;;;26.87;nan
63694;BME280;49839;51.798;10.954;2023-08-12T15:00:09;98947.34;;;26.84;nan
63694;BME280;49839;51.798;10.954;2023-08-12T15:02:37;98948.13;;;26.78;nan
63694;BME280;49839;51.798;10.954;2023-08-12T15:05:06;98937.97;;;26.80;nan
63694;BME280;49839;51.798;10.954;2023-08-12T15:07:36;98945.69;;;26.83;nan
63694;BME280;49839;51.798;10.954;2023-08-12T15:10:06;98926.06;;;26.75;nan
63694;BME280;49839;51.798;10.954;2023-08-12T15:12:33;98932.09;;;26.77;nan
63694;BME280;49839;51.798;10.954;2023-08-12T15:15:01;98924.69;;;26.64;nan
63694;BME280;49839;51.798;10.954;2023-08-12T15:17:29;98916.16;;;26.60;nan
63694;BME280;49839;51.798;10.954;2023-08-12T15:19:57;98922.63;;;26.66;nan
63694;BME280;49839;51.798;10.954;2023-08-12T15:22:25;98913.38;;;26.54;nan
63694;BME280;49839;51.798;10.954;2023-08-12T15:24:53;98911.69;;;26.53;nan
63694;BME280;49839;51.798;10.954;2023-08-12T15:27:22;98913.03;;;26.42;nan
63694;BME280;49839;51.798;10.954;2023-08-12T15:29:50;98899.69;;;26.40;nan
63694;BME280;49839;51.798;10.954;2023-08-12T15:32:18;98913.03;;;26.42;nan
63694;BME280;49839;51.798;10.954;2023-08-12T15:34:46;98905.09;;;26.40;nan
63694;BME280;49839;51.798;10.954;2023-08-12T15:37:14;98894.28;;;26.40;nan
63694;BME280;49839;51.798;10.954;2023-08-12T15:39:42;98884.97;;;26.43;nan
63694;BME280;49839;51.798;10.954;2023-08-12T15:42:10;98889.63;;;26.49;nan
63694;BME280;49839;51.798;10.954;2023-08-12T15:44:41;98884.16;;;26.64;nan
63694;BME280;49839;51.798;10.954;2023-08-12T15:47:09;98886.56;;;26.73;nan
63694;BME280;49839;51.798;10.954;2023-08-12T15:49:37;98891.06;;;26.66;nan
63694;BME280;49839;51.798;10.954;2023-08-12T15:52:05;98874.75;;;26.60;nan
63694;BME280;49839;51.798;10.954;2023-08-12T15:54:32;98886.09;;;26.70;nan
63694;BME280;49839;51.798;10.954;2023-08-12T15:57:00;98882.84;;;26.60;nan
63694;BME280;49839;51.798;10.954;2023-08-12T15:59:28;98885.88;;;26.50;nan
63694;BME280;49839;51.798;10.954;2023-08-12T16:01:57;98885.06;;;26.50;nan
63694;BME280;49839;51.798;10.954;2023-08-12T16:04:24;98890.81;;;26.46;nan
63694;BME280;49839;51.798;10.954;2023-08-12T16:06:53;98886.78;;;26.57;nan
63694;BME280;49839;51.798;10.954;2023-08-12T16:09:21;98884.16;;;26.64;nan
63694;BME280;49839;51.798;10.954;2023-08-12T16:14:30;98877.59;;;26.52;nan
63694;BME280;49839;51.798;10.954;2023-08-12T16:16:59;98874.44;;;26.48;nan
63694;BME280;49839;51.798;10.954;2023-08-12T16:19:27;98871.75;;;26.48;nan
63694;BME280;49839;51.798;10.954;2023-08-12T16:21:56;98866.34;;;26.48;nan
63694;BME280;49839;51.798;10.954;2023-08-12T16:24:24;98858.41;;;26.46;nan
63694;BME280;49839;51.798;10.954;2023-08-12T16:29:33;98877.72;;;26.29;nan
63694;BME280;49839;51.798;10.954;2023-08-12T16:32:03;98873.66;;;26.18;nan
63694;BME280;49839;51.798;10.954;2023-08-12T16:37:12;98871.16;;;26.16;nan
63694;BME280;49839;51.798;10.954;2023-08-12T16:45:58;98890.81;;;26.10;nan
63694;BME280;49839;51.798;10.954;2023-08-12T16:53:47;98876.47;;;25.95;nan
63694;BME280;49839;51.798;10.954;2023-08-12T16:56:14;98879.75;;;25.90;nan
63694;BME280;49839;51.798;10.954;2023-08-12T16:58:42;98891.31;;;25.84;nan
63694;BME280;49839;51.798;10.954;2023-08-12T17:01:10;98887.00;;;25.75;nan
63694;BME280;49839;51.798;10.954;2023-08-12T17:03:38;98892.59;;;25.74;nan
63694;BME280;49839;51.798;10.954;2023-08-12T17:06:05;98893.31;;;25.67;nan
63694;BME280;49839;51.798;10.954;2023-08-12T17:08:36;98894.88;;;25.62;nan
63694;BME280;49839;51.798;10.954;2023-08-12T17:11:05;98897.59;;;25.62;nan
63694;BME280;49839;51.798;10.954;2023-08-12T17:16:15;98898.91;;;25.66;nan
63694;BME280;49839;51.798;10.954;2023-08-12T17:18:43;98911.28;;;25.60;nan
63694;BME280;49839;51.798;10.954;2023-08-12T17:21:10;98909.31;;;25.54;nan
63694;BME280;49839;51.798;10.954;2023-08-12T17:23:39;98914.81;;;25.61;nan
63694;BME280;49839;51.798;10.954;2023-08-12T17:26:08;98911.75;;;25.64;nan
63694;BME280;49839;51.798;10.954;2023-08-12T17:28:35;98906.50;;;25.62;nan
63694;BME280;49839;51.798;10.954;2023-08-12T17:31:03;98920.75;;;25.56;nan
63694;BME280;49839;51.798;10.954;2023-08-12T17:33:32;98927.63;;;25.44;nan
63694;BME280;49839;51.798;10.954;2023-08-12T17:36:00;98940.03;;;25.30;nan
63694;BME280;49839;51.798;10.954;2023-08-12T17:38:29;98934.72;;;25.22;nan
63694;BME280;49839;51.798;10.954;2023-08-12T17:40:57;98949.59;;;25.18;nan
63694;BME280;49839;51.798;10.954;2023-08-12T17:43:26;98945.59;;;25.14;nan
63694;BME280;49839;51.798;10.954;2023-08-12T17:45:54;98957.75;;;25.10;nan
63694;BME280;49839;51.798;10.954;2023-08-12T17:48:21;98953.25;;;25.02;nan
63694;BME280;49839;51.798;10.954;2023-08-12T17:50:49;98947.22;;;24.92;nan
63694;BME280;49839;51.798;10.954;2023-08-12T17:53:17;98954.84;;;24.89;nan
63694;BME280;49839;51.798;10.954;2023-08-12T17:55:45;98966.69;;;24.79;nan
63694;BME280;49839;51.798;10.954;2023-08-12T17:58:13;98985.44;;;24.73;nan
63694;BME280;49839;51.798;10.954;2023-08-12T18:00:42;98993.38;;;24.66;nan
63694;BME280;49839;51.798;10.954;2023-08-12T18:03:10;99006.59;;;24.53;nan
63694;BME280;49839;51.798;10.954;2023-08-12T18:05:38;99015.94;;;24.26;nan
63694;BME280;49839;51.798;10.954;2023-08-12T18:08:07;99030.78;;;24.14;nan
63694;BME280;49839;51.798;10.954;2023-08-12T18:10:34;99030.16;;;23.95;nan
63694;BME280;49839;51.798;10.954;2023-08-12T18:13:02;99022.97;;;23.80;nan
63694;BME280;49839;51.798;10.954;2023-08-12T18:15:30;99028.50;;;23.70;nan
63694;BME280;49839;51.798;10.954;2023-08-12T18:17:59;99022.94;;;23.55;nan
63694;BME280;49839;51.798;10.954;2023-08-12T18:20:28;99021.94;;;23.40;nan
63694;BME280;49839;51.798;10.954;2023-08-12T18:22:56;99022.63;;;23.26;nan
63694;BME280;49839;51.798;10.954;2023-08-12T18:25:27;99026.13;;;23.18;nan
63694;BME280;49839;51.798;10.954;2023-08-12T18:27:58;99028.31;;;23.14;nan
63694;BME280;49839;51.798;10.954;2023-08-12T18:30:28;99018.22;;;23.16;nan
63694;BME280;49839;51.798;10.954;2023-08-12T18:32:56;99030.34;;;23.20;nan
63694;BME280;49839;51.798;10.954;2023-08-12T18:35:25;99046.78;;;23.17;nan
63694;BME280;49839;51.798;10.954;2023-08-12T18:37:59;99029.34;;;23.13;nan
63694;BME280;49839;51.798;10.954;2023-08-12T18:40:28;99022.09;;;23.14;nan
63694;BME280;49839;51.798;10.954;2023-08-12T18:42:57;99031.19;;;23.13;nan
63694;BME280;49839;51.798;10.954;2023-08-12T18:45:25;99048.47;;;23.10;nan
63694;BME280;49839;51.798;10.954;2023-08-12T18:47:53;99055.69;;;23.10;nan
63694;BME280;49839;51.798;10.954;2023-08-12T18:50:30;99055.50;;;23.03;nan
63694;BME280;49839;51.798;10.954;2023-08-12T18:52:58;99055.00;;;23.00;nan
63694;BME280;49839;51.798;10.954;2023-08-12T18:55:26;99060.69;;;22.96;nan
63694;BME280;49839;51.798;10.954;2023-08-12T18:57:54;99057.78;;;22.82;nan
63694;BME280;49839;51.798;10.954;2023-08-12T19:00:22;99056.03;;;22.64;nan
63694;BME280;49839;51.798;10.954;2023-08-12T19:02:50;99059.53;;;22.57;nan
63694;BME280;49839;51.798;10.954;2023-08-12T19:05:21;99064.19;;;22.47;nan
63694;BME280;49839;51.798;10.954;2023-08-12T19:07:50;99070.34;;;22.39;nan
63694;BME280;49839;51.798;10.954;2023-08-12T19:10:18;99075.53;;;22.32;nan
63694;BME280;49839;51.798;10.954;2023-08-12T19:12:45;99082.38;;;22.27;nan
63694;BME280;49839;51.798;10.954;2023-08-12T19:15:13;99087.22;;;22.23;nan
63694;BME280;49839;51.798;10.954;2023-08-12T19:17:42;99083.00;;;22.21;nan
63694;BME280;49839;51.798;10.954;2023-08-12T19:20:10;99087.53;;;22.20;nan
63694;BME280;49839;51.798;10.954;2023-08-12T19:22:38;99085.97;;;22.09;nan
63694;BME280;49839;51.798;10.954;2023-08-12T19:25:08;99096.75;;;22.00;nan
63694;BME280;49839;51.798;10.954;2023-08-12T19:27:36;99094.88;;;21.92;nan
63694;BME280;49839;51.798;10.954;2023-08-12T19:30:05;99099.63;;;21.80;nan
63694;BME280;49839;51.798;10.954;2023-08-12T19:32:45;99092.53;;;21.71;nan
63694;BME280;49839;51.798;10.954;2023-08-12T19:35:14;99086.13;;;21.64;nan
63694;BME280;49839;51.798;10.954;2023-08-12T19:37:42;99088.25;;;21.60;nan
63694;BME280;49839;51.798;10.954;2023-08-12T19:40:14;99093.41;;;21.54;nan
63694;BME280;49839;51.798;10.954;2023-08-12T19:42:43;99100.38;;;21.47;nan
63694;BME280;49839;51.798;10.954;2023-08-12T19:45:12;99108.41;;;21.47;nan
63694;BME280;49839;51.798;10.954;2023-08-12T19:47:42;99115.00;;;21.34;nan
63694;BME280;49839;51.798;10.954;2023-08-12T19:50:11;99105.72;;;21.29;nan
63694;BME280;49839;51.798;10.954;2023-08-12T19:52:39;99120.53;;;21.23;nan
63694;BME280;49839;51.798;10.954;2023-08-12T19:55:08;99116.19;;;21.22;nan
63694;BME280;49839;51.798;10.954;2023-08-12T19:57:38;99117.19;;;21.21;nan
63694;BME280;49839;51.798;10.954;2023-08-12T20:00:06;99119.19;;;21.19;nan
63694;BME280;49839;51.798;10.954;2023-08-12T20:02:34;99118.47;;;21.17;nan
63694;BME280;49839;51.798;10.954;2023-08-12T20:05:10;99120.63;;;21.14;nan
63694;BME280;49839;51.798;10.954;2023-08-12T20:07:41;99126.56;;;21.07;nan
63694;BME280;49839;51.798;10.954;2023-08-12T20:10:09;99120.81;;;21.02;nan
63694;BME280;49839;51.798;10.954;2023-08-12T20:12:39;99134.50;;;20.99;nan
63694;BME280;49839;51.798;10.954;2023-08-12T20:15:08;99134.97;;;20.95;nan
63694;BME280;49839;51.798;10.954;2023-08-12T20:17:36;99142.59;;;20.90;nan
63694;BME280;49839;51.798;10.954;2023-08-12T20:20:05;99147.41;;;20.86;nan
63694;BME280;49839;51.798;10.954;2023-08-12T20:22:38;99137.56;;;20.87;nan
63694;BME280;49839;51.798;10.954;2023-08-12T20:25:13;99137.69;;;20.85;nan
63694;BME280;49839;51.798;10.954;2023-08-12T20:27:42;99135.16;;;20.83;nan
63694;BME280;49839;51.798;10.954;2023-08-12T20:30:10;99135.31;;;20.82;nan
63694;BME280;49839;51.798;10.954;2023-08-12T20:32:38;99138.75;;;20.74;nan
63694;BME280;49839;51.798;10.954;2023-08-12T20:35:06;99130.47;;;20.68;nan
63694;BME280;49839;51.798;10.954;2023-08-12T20:37:34;99135.94;;;20.66;nan
63694;BME280;49839;51.798;10.954;2023-08-12T20:40:02;99132.00;;;20.61;nan
63694;BME280;49839;51.798;10.954;2023-08-12T20:42:31;99141.34;;;20.57;nan
63694;BME280;49839;51.798;10.954;2023-08-12T20:45:00;99147.69;;;20.55;nan
63694;BME280;49839;51.798;10.954;2023-08-12T20:47:28;99146.84;;;20.55;nan
63694;BME280;49839;51.798;10.954;2023-08-12T20:52:38;99145.03;;;20.55;nan
63694;BME280;49839;51.798;10.954;2023-08-12T21:03:05;99161.63;;;20.59;nan
63694;BME280;49839;51.798;10.954;2023-08-12T21:05:35;99163.28;;;20.60;nan
63694;BME280;49839;51.798;10.954;2023-08-12T21:10:37;99172.38;;;20.49;nan
63694;BME280;49839;51.798;10.954;2023-08-12T21:59:00;99195.75;;;20.47;nan
63694;BME280;49839;51.798;10.954;2023-08-12T22:01:28;99195.75;;;20.47;nan
63694;BME280;49839;51.798;10.954;2023-08-12T22:03:55;99194.06;;;20.46;nan
63694;BME280;49839;51.798;10.954;2023-08-12T22:06:23;99200.97;;;20.49;nan
63694;BME280;49839;51.798;10.954;2023-08-12T22:19:40;99212.06;;;20.44;nan
63694;BME280;49839;51.798;10.954;2023-08-12T22:22:08;99212.50;;;20.40;nan
63694;BME280;49839;51.798;10.954;2023-08-12T22:24:45;99207.00;;;20.41;nan
63694;BME280;49839;51.798;10.954;2023-08-12T22:27:13;99210.28;;;20.45;nan
63694;BME280;49839;51.798;10.954;2023-08-12T22:29:40;99212.94;;;20.45;nan
63694;BME280;49839;51.798;10.954;2023-08-12T22:32:08;99207.88;;;20.42;nan
63694;BME280;49839;51.798;10.954;2023-08-12T22:34:36;99215.31;;;20.38;nan
63694;BME280;49839;51.798;10.954;2023-08-12T22:37:05;99215.63;;;20.35;nan
63694;BME280;49839;51.798;10.954;2023-08-12T22:39:32;99214.22;;;20.31;nan
63694;BME280;49839;51.798;10.954;2023-08-12T22:42:00;99214.78;;;20.25;nan